Time;durP1;ratioP1;P1;durP2;ratioP2;P2;SDS_P1;SDS_P2;PMS_P1;PMS_P2;Temp;Humidity;BMP_temperature;BMP_pressure;BME280_temperature;BME280_humidity;BME280_pressure;Samples;Min_cycle;Max_cycle;Signal;HPM_P1;HPM_P2
2022/06/27 00:00:57;;;;;;;;;;;;;;;19.27;84.09;99656.00;1088192;54;19926;-83
2022/06/27 00:02:01;;;;;;;;;;;;;;;19.20;84.24;99653.31;1088184;54;19965;-82
2022/06/27 00:03:05;;;;;;;;;;;;;;;19.17;84.53;99649.16;1088186;54;19979;-84
2022/06/27 00:04:08;;;;;;;;;;;;;;;19.12;84.99;99662.47;1088896;46;19943;-82
2022/06/27 00:05:10;;;;;;;;;;;;;;;19.07;85.80;99658.72;1088207;54;19934;-79
2022/06/27 00:06:14;;;;;;;;;;;;;;;19.06;86.54;99647.06;1087959;54;19950;-81
2022/06/27 00:07:15;;;;;;;;;;;;;;;19.13;86.65;99647.88;1087753;54;19942;-80
2022/06/27 00:08:19;;;;;;;;;;;;;;;19.05;86.26;99649.97;1087729;54;20332;-82
2022/06/27 00:09:20;;;;;;;;;;;;;;;19.05;86.30;99634.56;1088109;54;20620;-81
2022/06/27 00:10:24;;;;;;;;;;;;;;;19.02;86.20;99627.72;1088243;54;19990;-80
2022/06/27 00:11:26;;;;;;;;;;;;;;;19.10;86.71;99626.63;1088389;54;19949;-82
2022/06/27 00:12:30;;;;;;;;;;;;;;;19.13;85.88;99601.00;1088502;54;20712;-82
2022/06/27 00:13:31;;;;;;;;;;;;;;;19.20;85.76;99588.28;1088442;54;19970;-79
2022/06/27 00:14:35;;;;;;;;;;;;;;;19.21;85.30;99573.69;1088486;54;19973;-81
2022/06/27 00:15:36;;;;;;;;;;;;;;;19.26;84.70;99571.16;1088485;54;19934;-81
2022/06/27 00:16:39;;;;;;;;;;;;;;;19.39;84.03;99554.00;1088596;54;19948;-85
2022/06/27 00:17:41;;;;;;;;;;;;;;;19.47;83.05;99523.13;1088952;46;19927;-87
2022/06/27 00:18:49;;;;;;;;;;;;;;;19.52;82.45;99542.28;1088459;54;19949;-85
2022/06/27 00:19:50;;;;;;;;;;;;;;;19.51;82.89;99556.88;1088580;54;19938;-87
2022/06/27 00:24:45;;;;;;;;;;;;;;;19.58;82.42;99541.44;1088552;54;19949;-86
2022/06/27 00:25:46;;;;;;;;;;;;;;;19.61;80.96;99549.13;1088709;54;19986;-88
2022/06/27 00:26:50;;;;;;;;;;;;;;;19.65;81.99;99546.81;1089795;46;19927;-88
2022/06/27 00:27:51;;;;;;;;;;;;;;;19.62;81.14;99531.00;1088689;54;19970;-87
2022/06/27 00:28:55;;;;;;;;;;;;;;;19.62;80.75;99533.69;1088521;54;19983;-86
2022/06/27 00:29:57;;;;;;;;;;;;;;;19.61;81.21;99524.72;1088608;54;19950;-86
2022/06/27 00:31:01;;;;;;;;;;;;;;;19.64;81.02;99528.91;1088837;39;20264;-88
2022/06/27 00:32:02;;;;;;;;;;;;;;;19.56;81.16;99545.38;1089727;39;20704;-88
2022/06/27 00:33:06;;;;;;;;;;;;;;;19.59;81.55;99544.97;1089692;39;20483;-86
2022/06/27 00:34:09;;;;;;;;;;;;;;;19.53;81.56;99564.81;1088291;54;19942;-86
2022/06/27 00:35:13;;;;;;;;;;;;;;;19.50;82.81;99585.06;1088205;54;19943;-87
2022/06/27 00:36:14;;;;;;;;;;;;;;;19.38;82.08;99598.41;1088301;54;19943;-86
2022/06/27 00:37:18;;;;;;;;;;;;;;;19.37;81.46;99615.72;1088310;54;19961;-87
2022/06/27 00:38:19;;;;;;;;;;;;;;;19.33;81.32;99622.63;1088064;54;19941;-85
2022/06/27 00:39:23;;;;;;;;;;;;;;;19.29;80.81;99634.94;1088171;54;19945;-85
2022/06/27 00:40:25;;;;;;;;;;;;;;;19.28;80.97;99636.81;1088290;54;19942;-86
2022/06/27 00:41:28;;;;;;;;;;;;;;;19.46;80.86;99636.13;1088209;54;19954;-85
2022/06/27 00:42:29;;;;;;;;;;;;;;;19.45;80.90;99639.91;1088125;54;19950;-86
2022/06/27 00:43:33;;;;;;;;;;;;;;;19.49;80.04;99641.13;1088220;54;19998;-87
2022/06/27 00:44:35;;;;;;;;;;;;;;;19.59;80.29;99645.28;1088237;54;19942;-86
2022/06/27 00:45:39;;;;;;;;;;;;;;;19.63;81.51;99646.53;1088249;54;19989;-86
2022/06/27 00:46:40;;;;;;;;;;;;;;;19.69;80.56;99650.25;1088103;54;19943;-85
2022/06/27 00:47:44;;;;;;;;;;;;;;;19.70;80.67;99644.59;1088242;54;20015;-87
2022/06/27 00:48:45;;;;;;;;;;;;;;;19.48;79.83;99655.72;1088106;54;19950;-85
2022/06/27 00:49:51;;;;;;;;;;;;;;;19.48;79.31;99649.50;1088197;54;19966;-85
2022/06/27 00:50:53;;;;;;;;;;;;;;;19.59;79.79;99672.38;1088122;54;19958;-85
2022/06/27 00:51:57;;;;;;;;;;;;;;;19.54;80.20;99691.19;1088159;54;19949;-85
2022/06/27 00:53:01;;;;;;;;;;;;;;;19.42;81.09;99699.94;1088088;54;19949;-85
2022/06/27 00:54:03;;;;;;;;;;;;;;;19.38;81.38;99724.97;1087984;54;19966;-87
2022/06/27 00:55:08;;;;;;;;;;;;;;;19.36;81.70;99727.06;1088129;54;20623;-85
2022/06/27 00:56:09;;;;;;;;;;;;;;;19.48;81.01;99715.34;1088114;54;19954;-86
2022/06/27 00:57:14;;;;;;;;;;;;;;;19.50;80.06;99720.59;1088104;54;19943;-87
2022/06/27 00:58:18;;;;;;;;;;;;;;;19.56;80.08;99717.03;1088151;54;19954;-87
2022/06/27 00:59:19;;;;;;;;;;;;;;;19.64;80.47;99726.81;1088196;54;19942;-86
2022/06/27 01:00:23;;;;;;;;;;;;;;;19.67;79.59;99722.84;1088348;54;19945;-86
2022/06/27 01:01:24;;;;;;;;;;;;;;;19.71;79.11;99732.19;1088212;54;19950;-85
2022/06/27 01:02:28;;;;;;;;;;;;;;;19.73;78.61;99744.53;1089093;39;20561;-87
2022/06/27 01:03:29;;;;;;;;;;;;;;;19.45;80.75;99764.59;1088205;54;19950;-86
2022/06/27 01:04:34;;;;;;;;;;;;;;;19.48;81.01;99776.88;1088219;54;19982;-86
2022/06/27 01:05:51;;;;;;;;;;;;;;;19.23;81.14;99788.34;1088312;54;19950;-86
2022/06/27 01:06:52;;;;;;;;;;;;;;;19.14;81.95;99801.28;1088694;54;19935;-86
2022/06/27 01:08:16;;;;;;;;;;;;;;;19.02;82.82;99817.31;1088765;54;19958;-85
2022/06/27 01:09:17;;;;;;;;;;;;;;;19.15;83.48;99834.59;1088812;54;19927;-84
2022/06/27 01:10:21;;;;;;;;;;;;;;;19.18;82.98;99845.84;1092023;46;19942;-85
2022/06/27 01:11:22;;;;;;;;;;;;;;;19.14;83.65;99843.75;1090440;46;19923;-87
2022/06/27 01:12:26;;;;;;;;;;;;;;;19.11;83.77;99863.97;1088746;54;19926;-87
2022/06/27 01:13:29;;;;;;;;;;;;;;;19.07;83.85;99880.84;1088588;54;19946;-85
2022/06/27 01:14:33;;;;;;;;;;;;;;;18.98;84.59;99877.50;1088861;46;19949;-84
2022/06/27 01:15:34;;;;;;;;;;;;;;;18.95;84.83;99875.19;1088087;54;19938;-86
2022/06/27 01:16:38;;;;;;;;;;;;;;;18.67;86.48;99886.94;1088088;54;20002;-86
2022/06/27 01:17:40;;;;;;;;;;;;;;;18.68;86.54;99885.91;1087988;54;19958;-84
2022/06/27 01:18:45;;;;;;;;;;;;;;;18.72;86.77;99889.88;1088174;46;20873;-85
2022/06/27 01:19:46;;;;;;;;;;;;;;;18.70;86.76;99881.13;1087992;54;19942;-84
2022/06/27 01:20:52;;;;;;;;;;;;;;;18.64;86.87;99871.09;1087965;54;19998;-83
2022/06/27 01:21:54;;;;;;;;;;;;;;;18.61;86.80;99866.13;1087922;54;19942;-83
2022/06/27 01:23:00;;;;;;;;;;;;;;;18.60;87.25;99859.03;1087935;54;19965;-82
2022/06/27 01:24:02;;;;;;;;;;;;;;;18.63;86.81;99855.88;1087963;54;19942;-84
2022/06/27 01:25:06;;;;;;;;;;;;;;;18.62;86.89;99840.69;1087910;54;20870;-85
2022/06/27 01:26:07;;;;;;;;;;;;;;;18.59;86.97;99836.50;1088014;46;19946;-84
2022/06/27 01:27:11;;;;;;;;;;;;;;;18.61;86.55;99825.50;1088056;54;19943;-84
2022/06/27 01:28:12;;;;;;;;;;;;;;;18.61;86.74;99817.38;1087951;54;19942;-86
2022/06/27 01:29:16;;;;;;;;;;;;;;;18.63;86.43;99799.03;1087976;54;20026;-86
2022/06/27 01:30:18;;;;;;;;;;;;;;;18.55;86.84;99790.06;1088040;54;19942;-84
2022/06/27 01:31:23;;;;;;;;;;;;;;;18.55;87.56;99770.31;1088056;54;19943;-85
2022/06/27 01:32:24;;;;;;;;;;;;;;;18.49;87.26;99761.13;1088093;54;19943;-85
2022/06/27 01:33:27;;;;;;;;;;;;;;;18.47;88.35;99752.38;1087951;54;20005;-84
2022/06/27 01:34:29;;;;;;;;;;;;;;;18.43;89.31;99748.41;1087970;54;19942;-83
2022/06/27 01:35:32;;;;;;;;;;;;;;;18.39;89.73;99728.22;1088007;54;19943;-84
2022/06/27 01:36:43;;;;;;;;;;;;;;;18.32;89.65;99728.19;1087953;54;19942;-85
2022/06/27 01:37:46;;;;;;;;;;;;;;;18.33;90.55;99719.03;1088017;54;19966;-86
2022/06/27 01:38:50;;;;;;;;;;;;;;;18.36;90.23;99715.94;1087858;54;19946;-85
2022/06/27 01:39:54;;;;;;;;;;;;;;;18.41;90.09;99718.03;1088036;54;20006;-86
2022/06/27 01:40:55;;;;;;;;;;;;;;;18.47;88.94;99719.03;1088135;54;20718;-85
2022/06/27 01:42:00;;;;;;;;;;;;;;;18.47;89.33;99714.47;1088228;54;19942;-85
2022/06/27 01:43:01;;;;;;;;;;;;;;;18.53;88.45;99719.06;1088278;54;19943;-86
2022/06/27 01:44:05;;;;;;;;;;;;;;;18.58;88.69;99714.94;1088220;54;19942;-86
2022/06/27 01:45:07;;;;;;;;;;;;;;;18.57;88.30;99702.44;1088155;54;19946;-86
2022/06/27 01:46:11;;;;;;;;;;;;;;;18.49;88.57;99679.09;1088127;46;19950;-85
2022/06/27 01:47:12;;;;;;;;;;;;;;;18.45;90.09;99654.31;1087994;54;19949;-83
2022/06/27 01:48:16;;;;;;;;;;;;;;;18.39;91.42;99633.50;1087923;54;19942;-84
2022/06/27 01:49:18;;;;;;;;;;;;;;;18.32;92.61;99598.31;1087960;54;20637;-86
2022/06/27 01:50:23;;;;;;;;;;;;;;;18.30;92.89;99548.16;1089055;46;20031;-85
2022/06/27 01:51:24;;;;;;;;;;;;;;;18.27;92.97;99489.06;1088385;54;19926;-86
2022/06/27 01:52:30;;;;;;;;;;;;;;;18.27;92.62;99407.88;1088394;54;19923;-84
2022/06/27 01:53:31;;;;;;;;;;;;;;;18.24;91.61;99360.47;1088248;54;19943;-82
2022/06/27 01:54:37;;;;;;;;;;;;;;;18.16;91.36;99333.66;1088311;54;19950;-86
2022/06/27 01:55:38;;;;;;;;;;;;;;;18.14;89.96;99333.03;1088262;46;19950;-84
2022/06/27 01:56:44;;;;;;;;;;;;;;;18.14;89.14;99336.53;1088483;46;19934;-86
2022/06/27 01:57:46;;;;;;;;;;;;;;;18.11;89.53;99353.22;1088257;47;19973;-84
2022/06/27 01:58:52;;;;;;;;;;;;;;;18.10;89.74;99373.19;1088360;54;19933;-84
2022/06/27 01:59:53;;;;;;;;;;;;;;;18.09;90.43;99376.94;1088460;54;19934;-81
2022/06/27 02:00:58;;;;;;;;;;;;;;;18.09;89.92;99382.34;1088410;54;19955;-83
2022/06/27 02:02:01;;;;;;;;;;;;;;;18.10;88.57;99375.88;1088811;46;19973;-83
2022/06/27 02:03:03;;;;;;;;;;;;;;;18.12;87.46;99372.97;1088447;54;19942;-84
2022/06/27 02:04:06;;;;;;;;;;;;;;;18.15;87.45;99367.97;1089710;46;19942;-87
2022/06/27 02:05:08;;;;;;;;;;;;;;;18.18;86.61;99369.44;1089734;46;19931;-85
2022/06/27 02:06:12;;;;;;;;;;;;;;;18.23;86.22;99367.72;1088164;54;19990;-82
2022/06/27 02:07:19;;;;;;;;;;;;;;;18.29;85.62;99382.28;1088121;54;19942;-85
2022/06/27 02:08:21;;;;;;;;;;;;;;;18.30;85.64;99399.38;1088069;54;19938;-83
2022/06/27 02:09:25;;;;;;;;;;;;;;;18.32;85.70;99418.94;1089538;39;20585;-82
2022/06/27 02:10:28;;;;;;;;;;;;;;;18.33;85.77;99437.66;1088090;54;19958;-84
2022/06/27 02:11:32;;;;;;;;;;;;;;;18.38;85.50;99451.34;1088187;54;19949;-85
2022/06/27 02:12:34;;;;;;;;;;;;;;;18.45;86.00;99453.25;1088164;46;19951;-81
2022/06/27 02:13:38;;;;;;;;;;;;;;;18.40;86.66;99459.28;1087757;54;20076;-81
2022/06/27 02:14:39;;;;;;;;;;;;;;;18.44;86.85;99473.22;1087817;54;20811;-82
2022/06/27 02:15:57;;;;;;;;;;;;;;;18.48;86.08;99478.00;1087750;54;19947;-81
2022/06/27 02:16:59;;;;;;;;;;;;;;;18.49;86.04;99485.09;1087739;54;19965;-81
2022/06/27 02:18:02;;;;;;;;;;;;;;;18.57;84.71;99496.72;1087903;54;19982;-82
2022/06/27 02:19:04;;;;;;;;;;;;;;;18.63;84.32;99480.47;1087830;54;19998;-81
2022/06/27 02:20:09;;;;;;;;;;;;;;;18.66;84.03;99468.38;1087795;54;20205;-83
2022/06/27 02:21:12;;;;;;;;;;;;;;;18.68;84.02;99460.91;1087516;54;19935;-80
2022/06/27 02:22:16;;;;;;;;;;;;;;;18.68;83.79;99469.03;1089008;39;20459;-80
2022/06/27 02:23:17;;;;;;;;;;;;;;;18.68;84.09;99477.13;1087750;54;19958;-81
2022/06/27 02:24:21;;;;;;;;;;;;;;;18.59;84.08;99483.81;1087839;54;19946;-82
2022/06/27 02:25:23;;;;;;;;;;;;;;;18.48;85.66;99505.06;1087644;54;19950;-82
2022/06/27 02:26:33;;;;;;;;;;;;;;;18.49;86.21;99514.00;1087720;54;19951;-80
2022/06/27 02:27:35;;;;;;;;;;;;;;;18.35;86.34;99514.03;1087804;54;19969;-80
2022/06/27 02:28:39;;;;;;;;;;;;;;;18.44;87.21;99519.22;1087708;54;19949;-81
2022/06/27 02:29:40;;;;;;;;;;;;;;;18.59;85.83;99508.19;1088813;39;20444;-81
2022/06/27 02:30:44;;;;;;;;;;;;;;;18.66;85.05;99501.69;1087735;54;19946;-81
2022/06/27 02:31:47;;;;;;;;;;;;;;;18.71;84.03;99493.78;1087789;54;19943;-80
2022/06/27 02:32:51;;;;;;;;;;;;;;;18.70;84.37;99480.47;1087684;54;19950;-81
2022/06/27 02:33:53;;;;;;;;;;;;;;;18.71;84.49;99482.09;1087913;46;19977;-80
2022/06/27 02:34:58;;;;;;;;;;;;;;;18.75;84.55;99477.94;1087194;54;19965;-79
2022/06/27 02:36:00;;;;;;;;;;;;;;;18.76;84.60;99484.19;1087774;54;19943;-81
2022/06/27 02:37:05;;;;;;;;;;;;;;;18.76;84.62;99485.03;1087219;54;19951;-80
2022/06/27 02:38:07;;;;;;;;;;;;;;;18.74;84.62;99487.09;1087565;54;19950;-80
2022/06/27 02:39:13;;;;;;;;;;;;;;;18.74;84.87;99497.94;1086833;54;20524;-79
2022/06/27 02:40:16;;;;;;;;;;;;;;;18.59;87.50;99494.66;1085959;54;19946;-84
2022/06/27 02:41:23;;;;;;;;;;;;;;;18.52;87.93;99511.72;1087513;54;19950;-85
2022/06/27 02:42:30;;;;;;;;;;;;;;;18.47;87.63;99516.94;1087691;54;19957;-82
2022/06/27 02:43:33;;;;;;;;;;;;;;;18.40;87.87;99521.53;1087377;54;19952;-83
2022/06/27 02:44:37;;;;;;;;;;;;;;;18.40;87.34;99522.34;1088553;39;20530;-83
2022/06/27 02:45:38;;;;;;;;;;;;;;;18.37;87.97;99530.03;1087721;54;19950;-85
2022/06/27 02:46:42;;;;;;;;;;;;;;;18.49;88.72;99532.94;1087872;54;19990;-85
2022/06/27 02:47:46;;;;;;;;;;;;;;;18.52;88.10;99527.94;1087827;54;19931;-84
2022/06/27 02:48:51;;;;;;;;;;;;;;;18.51;87.56;99523.59;1087729;54;19938;-83
2022/06/27 02:49:52;;;;;;;;;;;;;;;18.54;87.09;99531.28;1087885;54;19949;-85
2022/06/27 02:50:58;;;;;;;;;;;;;;;18.52;86.72;99532.53;1087805;54;20527;-85
2022/06/27 02:52:02;;;;;;;;;;;;;;;18.49;86.83;99530.25;1087810;54;19947;-84
2022/06/27 02:53:09;;;;;;;;;;;;;;;18.53;87.28;99526.91;1087762;54;19950;-83
2022/06/27 02:54:11;;;;;;;;;;;;;;;18.37;87.10;99530.03;1087568;54;19973;-83
2022/06/27 02:55:17;;;;;;;;;;;;;;;18.43;87.53;99540.03;1087647;54;20512;-83
2022/06/27 02:56:21;;;;;;;;;;;;;;;18.53;87.00;99540.44;1087748;54;20602;-84
2022/06/27 02:57:28;;;;;;;;;;;;;;;18.60;87.53;99539.63;1087660;54;19954;-83
2022/06/27 02:58:34;;;;;;;;;;;;;;;18.51;86.60;99537.13;1087886;54;19943;-84
2022/06/27 02:59:40;;;;;;;;;;;;;;;18.53;87.55;99532.31;1087885;54;19951;-84
2022/06/27 03:00:42;;;;;;;;;;;;;;;18.59;86.69;99532.53;1087901;54;19942;-83
2022/06/27 03:01:46;;;;;;;;;;;;;;;18.63;86.07;99533.78;1088102;54;19950;-83
2022/06/27 03:02:47;;;;;;;;;;;;;;;18.50;86.25;99540.88;1087937;54;19949;-84
2022/06/27 03:03:52;;;;;;;;;;;;;;;18.40;86.86;99535.06;1088548;46;20011;-83
2022/06/27 03:04:53;;;;;;;;;;;;;;;18.33;87.15;99540.47;1087879;54;19942;-82
2022/06/27 03:05:58;;;;;;;;;;;;;;;18.30;87.69;99535.44;1088284;46;19923;-83
2022/06/27 03:06:59;;;;;;;;;;;;;;;18.35;87.35;99540.25;1088131;54;19939;-84
2022/06/27 03:08:03;;;;;;;;;;;;;;;18.36;87.67;99533.78;1088155;54;19934;-83
2022/06/27 03:09:04;;;;;;;;;;;;;;;18.43;86.90;99529.19;1087852;54;19954;-81
2022/06/27 03:10:09;;;;;;;;;;;;;;;18.48;86.47;99532.13;1088162;54;19950;-84
2022/06/27 03:11:11;;;;;;;;;;;;;;;18.57;86.42;99530.03;1088205;54;19945;-83
2022/06/27 03:12:16;;;;;;;;;;;;;;;18.55;86.25;99529.44;1088064;54;19946;-83
2022/06/27 03:13:17;;;;;;;;;;;;;;;18.51;86.62;99530.88;1088062;54;19942;-82
2022/06/27 03:14:23;;;;;;;;;;;;;;;18.45;86.60;99526.31;1088053;54;19999;-84
2022/06/27 03:15:24;;;;;;;;;;;;;;;18.45;87.31;99532.53;1088188;54;19946;-83
2022/06/27 03:16:28;;;;;;;;;;;;;;;18.42;86.84;99527.53;1087942;54;19943;-83
2022/06/27 03:17:29;;;;;;;;;;;;;;;18.44;87.45;99530.88;1087918;54;19943;-83
2022/06/27 03:18:33;;;;;;;;;;;;;;;18.35;87.56;99537.53;1088010;54;19965;-83
2022/06/27 03:19:34;;;;;;;;;;;;;;;18.31;88.33;99537.13;1089481;39;20435;-83
2022/06/27 03:20:38;;;;;;;;;;;;;;;18.34;88.36;99535.88;1088101;54;19949;-83
2022/06/27 03:21:39;;;;;;;;;;;;;;;18.36;87.79;99540.06;1087470;54;19981;-82
2022/06/27 03:22:43;;;;;;;;;;;;;;;18.33;88.04;99534.19;1087419;54;19947;-83
2022/06/27 03:23:45;;;;;;;;;;;;;;;18.21;88.51;99542.97;1087185;54;19943;-82
2022/06/27 03:24:49;;;;;;;;;;;;;;;18.22;88.29;99541.91;1087849;54;19942;-84
2022/06/27 03:25:50;;;;;;;;;;;;;;;18.24;88.42;99545.22;1087619;54;19950;-83
2022/06/27 03:26:54;;;;;;;;;;;;;;;18.22;89.04;99550.03;1087471;54;20014;-85
2022/06/27 03:27:55;;;;;;;;;;;;;;;18.19;88.59;99547.72;1087995;54;19962;-85
2022/06/27 03:28:58;;;;;;;;;;;;;;;18.21;89.17;99545.66;1089141;39;20399;-86
2022/06/27 03:30:02;;;;;;;;;;;;;;;18.21;88.87;99537.53;1089558;46;19941;-85
2022/06/27 03:31:12;;;;;;;;;;;;;;;18.21;88.70;99542.97;1091627;47;19967;-84
2022/06/27 03:32:16;;;;;;;;;;;;;;;18.21;88.68;99539.41;1088379;54;19934;-83
2022/06/27 03:33:17;;;;;;;;;;;;;;;18.31;88.72;99539.00;1088572;47;19931;-85
2022/06/27 03:34:21;;;;;;;;;;;;;;;18.26;88.27;99533.38;1088354;54;19929;-84
2022/06/27 03:35:22;;;;;;;;;;;;;;;18.27;88.30;99530.47;1089105;47;19954;-84
2022/06/27 03:36:26;;;;;;;;;;;;;;;18.26;88.08;99530.66;1088562;47;19931;-84
2022/06/27 03:37:29;;;;;;;;;;;;;;;18.30;87.61;99526.50;1091112;47;19939;-83
2022/06/27 03:38:31;;;;;;;;;;;;;;;18.32;87.57;99530.66;1089938;47;19995;-85
2022/06/27 03:39:35;;;;;;;;;;;;;;;18.38;87.46;99532.53;1088919;47;19942;-84
2022/06/27 03:42:49;;;;;;;;;;;;;;;18.51;86.97;99561.50;1088975;54;19931;-86
2022/06/27 03:46:04;;;;;;;;;;;;;;;18.54;86.55;99547.53;1089294;54;19934;-85
2022/06/27 03:50:40;;;;;;;;;;;;;;;18.64;85.30;99540.84;1089256;54;19933;-85
2022/06/27 03:51:42;;;;;;;;;;;;;;;18.66;85.39;99547.72;1089264;54;19926;-87
2022/06/27 04:00:08;;;;;;;;;;;;;;;18.70;84.48;99534.63;1090231;46;19934;-88
2022/06/27 04:01:17;;;;;;;;;;;;;;;18.70;84.46;99540.03;1086834;54;19950;-81
2022/06/27 04:03:36;;;;;;;;;;;;;;;18.74;84.45;99549.38;1083841;54;19927;-83
2022/06/27 04:06:45;;;;;;;;;;;;;;;18.57;85.03;99557.09;1089324;54;19926;-84
2022/06/27 04:07:46;;;;;;;;;;;;;;;18.59;85.62;99560.44;1102496;46;19919;-82
2022/06/27 04:08:55;;;;;;;;;;;;;;;18.54;86.20;99555.63;1126709;46;19923;-84
2022/06/27 04:11:05;;;;;;;;;;;;;;;18.62;84.96;99551.03;1089163;54;19952;-89
2022/06/27 04:13:11;;;;;;;;;;;;;;;18.52;84.93;99549.59;1089300;54;19934;-85
2022/06/27 04:14:13;;;;;;;;;;;;;;;18.53;85.72;99555.84;1132949;46;19930;-86
2022/06/27 04:32:25;;;;;;;;;;;;;;;18.50;85.73;99540.03;1089256;54;19950;-83
2022/06/27 04:34:34;;;;;;;;;;;;;;;18.31;86.63;99557.94;1089203;54;19934;-84
2022/06/27 04:38:48;;;;;;;;;;;;;;;18.21;88.06;99586.25;1089177;54;19934;-86
2022/06/27 04:40:56;;;;;;;;;;;;;;;18.42;87.23;99580.84;1089237;54;19957;-89
2022/06/27 04:50:28;;;;;;;;;;;;;;;18.64;85.40;99513.78;1079910;54;20350;31
2022/06/27 04:51:39;;;;;;;;;;;;;;;18.67;85.67;99526.91;1077960;54;19947;31
2022/06/27 04:53:53;;;;;;;;;;;;;;;18.74;85.09;99530.44;1077939;54;20378;31
2022/06/27 04:54:56;;;;;;;;;;;;;;;18.78;84.61;99526.25;1086465;54;19934;31
2022/06/27 05:04:30;;;;;;;;;;;;;;;18.83;84.56;99548.09;1077578;54;19946;31
2022/06/27 05:05:34;;;;;;;;;;;;;;;18.79;84.34;99549.59;1077872;54;20764;31
2022/06/27 05:14:06;;;;;;;;;;;;;;;18.96;86.12;99611.47;1077539;54;19946;31
2022/06/27 05:15:14;;;;;;;;;;;;;;;18.88;85.48;99617.06;1103095;39;20850;31
2022/06/27 05:37:22;;;;;;;;;;;;;;;18.93;84.33;99641.66;1081936;54;19996;31
2022/06/27 05:38:27;;;;;;;;;;;;;;;18.98;84.24;99636.47;1088486;54;19949;-87
2022/06/27 05:41:39;;;;;;;;;;;;;;;19.19;84.12;99635.38;1088307;54;19923;-85
2022/06/27 05:51:09;;;;;;;;;;;;;;;18.76;84.63;99685.38;1088486;54;19957;-84
2022/06/27 05:52:13;;;;;;;;;;;;;;;18.74;84.74;99684.75;1088177;54;19943;-85
2022/06/27 05:55:24;;;;;;;;;;;;;;;18.77;84.58;99700.59;1088364;54;19929;-85
2022/06/27 05:56:28;;;;;;;;;;;;;;;18.85;84.76;99694.97;1088382;54;19939;-85
2022/06/27 05:58:37;;;;;;;;;;;;;;;18.98;83.45;99706.88;1090733;39;20612;-84
2022/06/27 05:59:39;;;;;;;;;;;;;;;19.02;83.29;99705.41;1094465;39;20906;-87
2022/06/27 06:00:42;;;;;;;;;;;;;;;19.08;83.30;99699.13;1088241;54;19943;-85
2022/06/27 06:01:46;;;;;;;;;;;;;;;19.09;83.36;99706.22;1088259;54;19958;-83
2022/06/27 06:03:54;;;;;;;;;;;;;;;19.09;83.15;99725.19;1088236;54;20638;-89
2022/06/27 06:04:59;;;;;;;;;;;;;;;19.17;82.81;99719.59;1088090;54;20609;-88
2022/06/27 06:06:01;;;;;;;;;;;;;;;19.17;82.54;99727.72;1088207;54;19942;-88
2022/06/27 06:07:05;;;;;;;;;;;;;;;19.06;82.99;99722.91;1088167;54;19958;-85
2022/06/27 06:08:06;;;;;;;;;;;;;;;19.08;82.80;99720.00;1088065;54;19951;-87
2022/06/27 06:10:14;;;;;;;;;;;;;;;19.06;82.86;99717.50;1088144;54;19942;-87
2022/06/27 06:11:18;;;;;;;;;;;;;;;19.11;82.74;99722.28;1088151;54;19935;-84
2022/06/27 06:12:24;;;;;;;;;;;;;;;18.95;83.38;99726.25;1088283;54;19958;-87
2022/06/27 06:13:28;;;;;;;;;;;;;;;18.99;83.31;99732.91;1088039;54;20634;-88
2022/06/27 06:15:36;;;;;;;;;;;;;;;18.93;83.61;99741.84;1087551;54;21011;-87
2022/06/27 06:17:49;;;;;;;;;;;;;;;18.97;83.31;99737.72;1088383;39;20608;-88
2022/06/27 06:18:52;;;;;;;;;;;;;;;19.05;83.13;99737.50;1087878;54;19943;-86
2022/06/27 06:19:56;;;;;;;;;;;;;;;19.06;83.33;99739.16;1088044;54;20049;-86
2022/06/27 06:20:57;;;;;;;;;;;;;;;19.06;83.40;99739.16;1088054;46;19958;-87
2022/06/27 06:22:01;;;;;;;;;;;;;;;19.12;83.02;99734.81;1088095;54;19942;-87
2022/06/27 06:23:02;;;;;;;;;;;;;;;19.17;82.50;99735.00;1087998;54;19942;-86
2022/06/27 06:24:06;;;;;;;;;;;;;;;19.03;82.44;99731.44;1090358;39;20495;-86
2022/06/27 06:25:08;;;;;;;;;;;;;;;19.04;82.99;99727.69;1087969;54;19954;-87
2022/06/27 06:26:14;;;;;;;;;;;;;;;19.14;82.36;99735.41;1094302;39;20581;-88
2022/06/27 06:27:18;;;;;;;;;;;;;;;18.97;83.41;99735.00;1088200;54;19999;-86
2022/06/27 06:28:21;;;;;;;;;;;;;;;18.98;83.54;99742.91;1088196;46;19939;-80
2022/06/27 06:29:23;;;;;;;;;;;;;;;19.02;83.87;99746.03;1090270;46;19962;-79
2022/06/27 06:30:26;;;;;;;;;;;;;;;19.10;83.69;99735.00;1087889;54;19946;-79
2022/06/27 06:31:28;;;;;;;;;;;;;;;19.17;83.00;99741.25;1087882;54;19939;-79
2022/06/27 06:32:32;;;;;;;;;;;;;;;19.06;83.29;99749.16;1088294;39;20774;-80
2022/06/27 06:33:35;;;;;;;;;;;;;;;19.11;83.22;99752.91;1087891;54;19943;-79
2022/06/27 06:34:37;;;;;;;;;;;;;;;19.06;83.40;99749.16;1087714;54;19943;-78
2022/06/27 06:35:40;;;;;;;;;;;;;;;19.18;82.90;99739.38;1087897;54;19948;-80
2022/06/27 06:36:42;;;;;;;;;;;;;;;19.18;82.71;99731.25;1087846;54;19943;-79
2022/06/27 06:37:46;;;;;;;;;;;;;;;19.07;82.53;99729.16;1087891;54;19942;-80
2022/06/27 06:38:47;;;;;;;;;;;;;;;18.88;83.37;99725.38;1089219;39;20814;-80
2022/06/27 06:39:51;;;;;;;;;;;;;;;19.05;82.88;99725.81;1087875;47;19939;-80
2022/06/27 06:40:52;;;;;;;;;;;;;;;19.19;82.56;99722.06;1087811;54;19943;-80
2022/06/27 06:41:57;;;;;;;;;;;;;;;19.25;82.49;99704.16;1087840;54;19942;-82
2022/06/27 06:43:04;;;;;;;;;;;;;;;19.20;81.59;99701.22;1087895;54;19974;-82
2022/06/27 06:44:05;;;;;;;;;;;;;;;19.28;82.08;99692.88;1087854;54;19950;-82
2022/06/27 06:45:10;;;;;;;;;;;;;;;19.21;82.51;99702.88;1088322;46;19954;-83
2022/06/27 06:46:11;;;;;;;;;;;;;;;19.21;83.28;99716.44;1087797;54;19942;-84
2022/06/27 06:47:16;;;;;;;;;;;;;;;19.18;83.79;99720.41;1087929;47;19943;-81
2022/06/27 06:48:17;;;;;;;;;;;;;;;19.26;83.72;99720.19;1087836;54;19942;-85
2022/06/27 06:49:21;;;;;;;;;;;;;;;19.31;83.14;99717.69;1087735;54;20045;-86
2022/06/27 06:50:23;;;;;;;;;;;;;;;19.39;83.05;99710.38;1089310;39;20562;-87
2022/06/27 06:51:29;;;;;;;;;;;;;;;19.43;82.46;99712.47;1088000;54;19943;-84
2022/06/27 06:52:30;;;;;;;;;;;;;;;19.47;81.92;99705.56;1088135;54;19943;-79
2022/06/27 06:53:35;;;;;;;;;;;;;;;19.47;81.72;99715.59;1087896;54;19950;-78
2022/06/27 06:54:37;;;;;;;;;;;;;;;19.40;82.36;99725.59;1092158;31;20688;-79
2022/06/27 06:55:41;;;;;;;;;;;;;;;19.29;82.63;99729.78;1087884;54;19942;-78
2022/06/27 06:56:42;;;;;;;;;;;;;;;19.34;82.65;99730.00;1087864;54;20928;-81
2022/06/27 06:57:46;;;;;;;;;;;;;;;19.30;82.12;99717.88;1087844;54;19938;-79
2022/06/27 06:58:50;;;;;;;;;;;;;;;19.36;82.37;99725.19;1087838;54;19942;-79
2022/06/27 06:59:54;;;;;;;;;;;;;;;19.26;82.83;99727.50;1088206;39;20565;-80
2022/06/27 07:00:56;;;;;;;;;;;;;;;19.18;82.80;99736.66;1087866;54;19943;-79
2022/06/27 07:02:00;;;;;;;;;;;;;;;19.24;83.15;99741.22;1087857;54;19942;-78
2022/06/27 07:03:01;;;;;;;;;;;;;;;19.39;82.45;99722.03;1087819;54;20620;-80
2022/06/27 07:04:05;;;;;;;;;;;;;;;19.48;81.70;99718.06;1087845;54;19939;-79
2022/06/27 07:05:11;;;;;;;;;;;;;;;19.43;81.39;99717.03;1088935;46;19946;-79
2022/06/27 07:06:12;;;;;;;;;;;;;;;19.42;81.52;99732.47;1087829;54;19943;-77
2022/06/27 07:07:18;;;;;;;;;;;;;;;19.37;81.37;99724.13;1087851;54;19943;-79
2022/06/27 07:08:22;;;;;;;;;;;;;;;19.35;81.65;99720.81;1087916;54;19942;-77
2022/06/27 07:09:23;;;;;;;;;;;;;;;19.39;81.14;99715.81;1088335;46;19938;-80
2022/06/27 07:10:28;;;;;;;;;;;;;;;19.48;81.31;99711.81;1087846;46;19977;-80
2022/06/27 07:11:32;;;;;;;;;;;;;;;19.53;80.69;99705.78;1087824;54;19942;-77
2022/06/27 07:12:33;;;;;;;;;;;;;;;19.61;80.60;99708.25;1087767;54;19942;-77
2022/06/27 07:13:37;;;;;;;;;;;;;;;19.51;80.29;99710.56;1087833;54;19942;-78
2022/06/27 07:14:42;;;;;;;;;;;;;;;19.53;80.65;99716.63;1088307;39;20609;-78
2022/06/27 07:15:45;;;;;;;;;;;;;;;19.57;81.05;99723.25;1087970;39;19967;-80
2022/06/27 07:16:50;;;;;;;;;;;;;;;19.68;80.99;99729.94;1087769;54;19942;-77
2022/06/27 07:17:53;;;;;;;;;;;;;;;19.73;80.50;99720.13;1088032;54;19942;-80
2022/06/27 07:19:00;;;;;;;;;;;;;;;19.68;80.46;99724.50;1091057;46;19942;-78
2022/06/27 07:20:04;;;;;;;;;;;;;;;19.52;81.22;99725.78;1087883;54;19950;-77
2022/06/27 07:21:08;;;;;;;;;;;;;;;19.56;81.44;99722.44;1087994;54;19982;-78
2022/06/27 07:22:09;;;;;;;;;;;;;;;19.48;81.30;99730.81;1088598;47;19950;-77
2022/06/27 07:23:13;;;;;;;;;;;;;;;19.48;81.55;99736.22;1087952;54;19938;-77